Time;durP1;ratioP1;P1;durP2;ratioP2;P2;SDS_P1;SDS_P2;PMS_P1;PMS_P2;Temp;Humidity;BMP_temperature;BMP_pressure;BME280_temperature;BME280_humidity;BME280_pressure;Samples;Min_cycle;Max_cycle;Signal;HPM_P1;HPM_P2
2024/01/15 00:02:07;;;;;;;3.63;0.70;;;3.40;99.90;;;;;;5056233;28;20528;-86
2024/01/15 00:04:38;;;;;;;4.45;1.08;;;3.40;99.90;;;;;;5056055;28;20024;-85
2024/01/15 00:07:04;;;;;;;1.80;0.70;;;3.40;99.90;;;;;;5072458;28;20020;-86
2024/01/15 00:09:30;;;;;;;5.03;1.00;;;3.40;99.90;;;;;;5025122;28;20029;-85
2024/01/15 00:11:55;;;;;;;1.60;0.77;;;3.40;99.90;;;;;;5055217;28;20111;-85
2024/01/15 00:14:21;;;;;;;5.22;0.88;;;3.40;99.90;;;;;;5039081;28;20052;-85
2024/01/15 00:16:49;;;;;;;4.32;0.90;;;3.30;99.90;;;;;;5038952;28;20076;-86
2024/01/15 00:19:15;;;;;;;3.13;0.95;;;3.30;99.90;;;;;;5051074;28;20033;-86
2024/01/15 00:21:43;;;;;;;3.38;0.70;;;3.30;99.90;;;;;;5055749;28;20028;-86
2024/01/15 00:24:09;;;;;;;4.55;1.13;;;3.30;99.90;;;;;;5043112;28;20036;-86
2024/01/15 00:26:34;;;;;;;2.13;0.80;;;3.20;99.90;;;;;;5031708;28;20037;-86
2024/01/15 00:29:00;;;;;;;4.43;0.80;;;3.20;99.90;;;;;;5042658;28;20028;-85
2024/01/15 00:31:26;;;;;;;6.63;1.00;;;3.20;99.90;;;;;;5042763;28;20031;-85
2024/01/15 00:33:52;;;;;;;3.80;1.25;;;3.20;99.90;;;;;;5044208;28;20376;-86
2024/01/15 00:36:17;;;;;;;3.30;1.02;;;3.20;99.90;;;;;;5069194;28;20021;-84
2024/01/15 00:38:44;;;;;;;3.13;0.90;;;3.10;99.90;;;;;;5061328;28;20009;-85
2024/01/15 00:41:10;;;;;;;3.10;0.90;;;3.10;99.90;;;;;;5073785;28;20021;-86
2024/01/15 00:43:36;;;;;;;3.97;0.70;;;3.10;99.90;;;;;;5081881;28;20059;-85
2024/01/15 00:46:03;;;;;;;6.13;1.10;;;3.00;99.90;;;;;;5061982;28;20021;-86
2024/01/15 00:48:28;;;;;;;3.50;1.10;;;3.00;99.90;;;;;;5043285;28;20021;-85
2024/01/15 00:50:57;;;;;;;6.30;1.10;;;3.00;99.90;;;;;;5058853;28;20377;-85
2024/01/15 00:53:22;;;;;;;7.05;1.50;;;2.90;99.90;;;;;;5059387;28;20052;-85
2024/01/15 00:55:49;;;;;;;3.83;1.05;;;2.90;99.90;;;;;;5058943;28;20027;-86
2024/01/15 00:58:14;;;;;;;3.55;1.40;;;2.90;99.90;;;;;;5059150;28;20024;-86
2024/01/15 01:00:40;;;;;;;5.50;1.17;;;2.90;99.90;;;;;;5058560;28;20053;-85
2024/01/15 01:03:06;;;;;;;4.05;0.77;;;2.90;99.90;;;;;;5042483;28;20089;-85
2024/01/15 01:05:34;;;;;;;5.25;1.00;;;2.90;99.90;;;;;;5058222;28;20089;-85
2024/01/15 01:07:59;;;;;;;3.78;1.00;;;2.80;99.90;;;;;;5056609;28;20029;-85
2024/01/15 01:10:25;;;;;;;6.72;1.45;;;2.80;99.90;;;;;;5038552;28;20033;-86
2024/01/15 01:12:51;;;;;;;3.70;0.90;;;2.90;99.90;;;;;;5050217;28;20029;-85
2024/01/15 01:15:16;;;;;;;5.32;1.08;;;2.80;99.90;;;;;;5058233;28;20132;-86
2024/01/15 01:17:42;;;;;;;3.55;0.95;;;2.80;99.90;;;;;;5041003;28;20056;-85
2024/01/15 01:20:10;;;;;;;3.33;1.20;;;2.80;99.90;;;;;;5058408;28;20138;-86
2024/01/15 01:22:36;;;;;;;3.03;0.80;;;2.80;99.90;;;;;;5056401;28;20086;-85
2024/01/15 01:25:04;;;;;;;3.35;1.25;;;2.80;99.90;;;;;;5022983;28;20025;-86
2024/01/15 01:27:33;;;;;;;2.75;0.95;;;2.70;99.90;;;;;;5058066;28;20107;-85
2024/01/15 01:29:58;;;;;;;3.47;1.08;;;2.80;99.90;;;;;;5058278;28;20028;-86
2024/01/15 01:32:24;;;;;;;2.72;0.90;;;2.70;99.90;;;;;;5076170;28;20112;-85
2024/01/15 01:34:50;;;;;;;4.78;0.90;;;2.80;99.90;;;;;;5041943;28;20542;-86
2024/01/15 01:37:16;;;;;;;6.28;1.20;;;2.80;99.90;;;;;;5043236;28;20408;-86
2024/01/15 01:39:42;;;;;;;5.85;1.38;;;2.70;99.90;;;;;;5049395;28;20460;-86
2024/01/15 01:42:08;;;;;;;5.75;1.40;;;2.70;99.90;;;;;;5041146;28;20119;-86
2024/01/15 01:44:34;;;;;;;4.20;1.20;;;2.70;99.90;;;;;;5058126;28;20059;-86
2024/01/15 01:47:00;;;;;;;5.18;1.50;;;2.70;99.90;;;;;;5057707;28;20424;-87
2024/01/15 01:49:27;;;;;;;4.40;1.40;;;2.70;99.90;;;;;;5058258;28;20140;-85
2024/01/15 01:51:56;;;;;;;4.40;1.30;;;2.70;99.90;;;;;;5056477;28;20633;-86
2024/01/15 01:54:24;;;;;;;5.78;1.48;;;2.70;99.90;;;;;;5063491;28;20024;-85
2024/01/15 01:56:50;;;;;;;5.43;1.63;;;2.70;99.90;;;;;;5061940;28;20020;-85
2024/01/15 01:59:17;;;;;;;5.65;1.63;;;2.70;99.90;;;;;;5078266;28;20013;-85
2024/01/15 02:01:44;;;;;;;3.00;2.10;;;2.70;99.90;;;;;;5081940;28;20008;-85
2024/01/15 02:04:11;;;;;;;5.30;1.67;;;2.60;99.90;;;;;;5061786;28;20020;-86
2024/01/15 02:06:36;;;;;;;4.53;1.33;;;2.70;99.90;;;;;;5041711;28;20059;-86
2024/01/15 02:09:07;;;;;;;6.38;2.67;;;2.60;99.90;;;;;;5035105;28;20431;-86
2024/01/15 02:11:33;;;;;;;4.40;1.40;;;2.60;99.90;;;;;;5032692;28;20119;-86
2024/01/15 02:13:59;;;;;;;5.82;1.75;;;2.60;99.90;;;;;;5021035;28;20056;-86
2024/01/15 02:16:24;;;;;;;4.25;1.70;;;2.60;99.90;;;;;;5014058;28;20050;-85
2024/01/15 02:18:50;;;;;;;5.18;1.70;;;2.60;99.90;;;;;;5028708;28;20429;-86
2024/01/15 02:21:16;;;;;;;5.95;1.42;;;2.60;99.90;;;;;;5013914;28;20041;-85
2024/01/15 02:23:41;;;;;;;4.40;1.63;;;2.60;99.90;;;;;;5013044;28;20407;-86
2024/01/15 02:26:08;;;;;;;4.93;1.90;;;2.50;99.90;;;;;;5016744;28;20061;-85
2024/01/15 02:28:33;;;;;;;8.82;1.60;;;2.50;99.90;;;;;;5033011;28;20067;-86
2024/01/15 02:30:59;;;;;;;6.35;1.75;;;2.50;99.90;;;;;;5050465;28;20037;-86
2024/01/15 02:33:25;;;;;;;8.00;1.63;;;2.50;99.90;;;;;;5015808;28;20432;-86
2024/01/15 02:35:51;;;;;;;9.13;1.70;;;2.50;99.90;;;;;;5045731;28;20018;-85
2024/01/15 02:38:17;;;;;;;6.40;2.00;;;2.50;99.90;;;;;;5034070;28;20124;-85
2024/01/15 02:40:45;;;;;;;4.35;1.33;;;2.50;99.90;;;;;;5028136;28;20076;-86
2024/01/15 02:43:11;;;;;;;4.15;1.30;;;2.50;99.90;;;;;;5030412;28;20029;-86
2024/01/15 02:45:37;;;;;;;7.25;1.50;;;2.60;99.90;;;;;;5029608;28;20500;-85
2024/01/15 02:48:03;;;;;;;6.57;1.88;;;2.50;99.90;;;;;;5030156;28;20022;-86
2024/01/15 02:50:29;;;;;;;6.85;1.70;;;2.60;99.90;;;;;;5016269;28;20034;-86
2024/01/15 02:52:54;;;;;;;6.78;1.77;;;2.60;99.90;;;;;;5030140;28;20125;-86
2024/01/15 02:55:20;;;;;;;4.70;1.92;;;2.60;99.90;;;;;;5001502;28;20062;-86
2024/01/15 02:57:46;;;;;;;6.03;2.10;;;2.60;99.90;;;;;;5021869;28;20034;-86
2024/01/15 03:00:12;;;;;;;9.00;2.78;;;2.60;99.90;;;;;;5032856;28;20036;-86
2024/01/15 03:02:47;;;;;;;7.75;1.85;;;2.60;99.90;;;;;;5033600;28;20406;-86
2024/01/15 03:05:13;;;;;;;3.55;1.45;;;2.60;99.90;;;;;;5001375;28;20042;-85
2024/01/15 03:07:39;;;;;;;5.53;1.92;;;2.60;99.90;;;;;;5049912;28;20030;-84
2024/01/15 03:10:06;;;;;;;6.32;1.83;;;2.60;99.90;;;;;;5021621;28;20030;-86
2024/01/15 03:12:31;;;;;;;7.38;1.73;;;2.70;99.90;;;;;;5039355;28;20017;-86
2024/01/15 03:14:57;;;;;;;6.22;1.77;;;2.70;99.90;;;;;;5040114;28;20045;-86
2024/01/15 03:17:23;;;;;;;3.72;1.55;;;2.70;99.90;;;;;;5059443;28;20060;-85
2024/01/15 03:19:49;;;;;;;6.00;1.70;;;2.70;99.90;;;;;;5055308;28;20044;-86
2024/01/15 03:22:18;;;;;;;7.45;1.65;;;2.70;99.90;;;;;;5043601;28;20053;-86
2024/01/15 03:24:48;;;;;;;5.80;1.45;;;2.70;99.90;;;;;;5047798;28;20025;-85
2024/01/15 03:27:14;;;;;;;8.30;1.23;;;2.70;99.90;;;;;;5033571;28;20108;-85
2024/01/15 03:29:40;;;;;;;4.53;1.10;;;2.60;99.90;;;;;;5050755;28;20067;-84
2024/01/15 03:32:06;;;;;;;4.75;0.95;;;2.60;99.90;;;;;;5053235;28;20130;-85
2024/01/15 03:34:32;;;;;;;3.78;1.08;;;2.60;99.90;;;;;;5036227;28;20477;-86
2024/01/15 03:36:59;;;;;;;4.63;1.40;;;2.60;99.90;;;;;;5052542;28;20362;-85
2024/01/15 03:39:24;;;;;;;6.47;1.73;;;2.60;99.90;;;;;;5030570;28;20136;-86
2024/01/15 03:41:50;;;;;;;6.38;1.48;;;2.60;99.90;;;;;;5016428;28;20469;-85
2024/01/15 03:44:18;;;;;;;5.80;1.15;;;2.60;99.90;;;;;;5025274;28;20034;-85
2024/01/15 03:46:44;;;;;;;3.28;1.10;;;2.60;99.90;;;;;;5033360;28;20029;-86
2024/01/15 03:49:09;;;;;;;4.70;1.10;;;2.60;99.90;;;;;;5000587;28;20040;-86
2024/01/15 03:51:35;;;;;;;4.95;1.30;;;2.60;99.90;;;;;;5042829;28;20419;-85
2024/01/15 03:54:01;;;;;;;4.72;1.13;;;2.50;99.90;;;;;;5052342;28;20099;-85
2024/01/15 03:56:27;;;;;;;5.78;1.30;;;2.60;99.90;;;;;;5035536;28;20060;-85
2024/01/15 03:58:52;;;;;;;5.50;1.35;;;2.60;99.90;;;;;;5022223;28;20025;-86
2024/01/15 04:01:18;;;;;;;3.55;1.20;;;2.60;99.90;;;;;;5037116;28;20025;-85
2024/01/15 04:03:46;;;;;;;4.00;1.42;;;2.60;99.90;;;;;;5057286;28;20478;-86
2024/01/15 04:06:12;;;;;;;5.28;1.67;;;2.60;99.90;;;;;;5043671;28;20029;-86
2024/01/15 04:08:38;;;;;;;7.38;1.40;;;2.60;99.90;;;;;;5027935;28;20132;-85
2024/01/15 04:11:03;;;;;;;6.63;1.63;;;2.60;99.90;;;;;;5055680;28;20393;-85
2024/01/15 04:13:32;;;;;;;10.93;1.25;;;2.60;99.90;;;;;;5039914;28;20036;-86
2024/01/15 04:16:00;;;;;;;4.03;1.13;;;2.70;99.90;;;;;;5057297;28;20087;-86
2024/01/15 04:18:26;;;;;;;7.15;1.27;;;2.70;99.90;;;;;;5043371;28;20078;-86
2024/01/15 04:20:51;;;;;;;5.88;1.20;;;2.70;99.90;;;;;;5060007;28;20060;-86
2024/01/15 04:23:17;;;;;;;3.67;1.20;;;2.70;99.90;;;;;;5043496;28;20040;-86
2024/01/15 04:25:46;;;;;;;6.00;1.60;;;2.70;99.90;;;;;;5060908;28;20024;-85
2024/01/15 04:28:12;;;;;;;6.10;1.25;;;2.70;99.90;;;;;;5052686;28;20024;-85
2024/01/15 04:30:42;;;;;;;4.93;1.23;;;2.70;99.90;;;;;;5075019;28;20096;-85
2024/01/15 04:33:08;;;;;;;5.93;1.60;;;2.70;99.90;;;;;;5066136;28;20041;-85
2024/01/15 04:35:36;;;;;;;4.40;1.05;;;2.70;99.90;;;;;;5045640;28;20087;-85
2024/01/15 04:38:02;;;;;;;10.20;1.67;;;2.80;99.90;;;;;;5040727;28;20461;-85
2024/01/15 04:40:30;;;;;;;6.18;1.25;;;2.80;99.90;;;;;;5023849;28;20044;-85
2024/01/15 04:42:56;;;;;;;7.05;1.42;;;2.80;99.90;;;;;;5045323;28;20029;-85
2024/01/15 04:45:28;;;;;;;4.15;1.13;;;2.80;99.90;;;;;;5051583;28;20445;-85
2024/01/15 04:47:55;;;;;;;2.92;1.00;;;2.80;99.90;;;;;;5043675;28;20465;-85
2024/01/15 04:50:21;;;;;;;8.27;1.20;;;2.80;99.90;;;;;;5077321;28;20039;-85
2024/01/15 04:52:47;;;;;;;5.25;1.10;;;2.80;99.90;;;;;;5059057;28;20021;-85
2024/01/15 04:55:13;;;;;;;6.32;0.98;;;2.80;99.90;;;;;;5076349;28;20427;-85
2024/01/15 04:57:41;;;;;;;5.40;1.20;;;2.80;99.90;;;;;;5036995;28;20549;-85
2024/01/15 05:00:10;;;;;;;5.80;1.30;;;2.80;99.90;;;;;;5051842;28;20036;-85
2024/01/15 05:02:35;;;;;;;5.43;1.33;;;2.80;99.90;;;;;;5040479;28;20029;-85
2024/01/15 05:05:01;;;;;;;4.03;1.30;;;2.80;99.90;;;;;;5038584;28;20036;-85
2024/01/15 05:07:27;;;;;;;3.75;1.42;;;2.80;99.90;;;;;;5075873;28;20028;-85
2024/01/15 05:09:53;;;;;;;4.97;1.25;;;2.70;99.90;;;;;;5040268;28;20048;-85
2024/01/15 05:12:18;;;;;;;6.15;1.83;;;2.70;99.90;;;;;;5058270;28;20025;-85
2024/01/15 05:14:44;;;;;;;7.45;1.40;;;2.70;99.90;;;;;;5057932;28;20107;-85
2024/01/15 05:17:12;;;;;;;7.47;1.77;;;2.70;99.90;;;;;;5057899;28;20484;-85
2024/01/15 05:19:40;;;;;;;6.10;1.85;;;2.70;99.90;;;;;;5058499;28;20131;-85
2024/01/15 05:22:55;;;;;;;;;;;;;;;;;;;;;
2024/01/15 05:25:10;;;;;;;5.90;1.85;;;2.70;99.90;;;;;;5054319;28;20040;-84
2024/01/15 05:27:35;;;;;;;6.53;2.67;;;2.70;99.90;;;;;;5073577;28;20040;-84
2024/01/15 05:30:01;;;;;;;3.97;1.77;;;2.60;99.90;;;;;;5058237;28;20024;-84
2024/01/15 05:32:27;;;;;;;5.07;1.98;;;2.60;99.90;;;;;;5058738;28;20384;-84
2024/01/15 05:34:52;;;;;;;4.30;1.35;;;2.60;99.90;;;;;;5076049;28;20452;-84
2024/01/15 05:37:18;;;;;;;3.38;1.17;;;2.60;99.90;;;;;;5041589;28;20454;-83
2024/01/15 05:39:44;;;;;;;4.72;1.60;;;2.50;99.90;;;;;;5057736;28;20028;-84
2024/01/15 05:42:09;;;;;;;3.65;1.25;;;2.60;99.90;;;;;;5038376;28;20476;-83
2024/01/15 05:44:38;;;;;;;5.72;1.25;;;2.50;99.90;;;;;;5046201;28;20029;-84
2024/01/15 05:47:04;;;;;;;2.58;1.13;;;2.60;99.90;;;;;;5055608;28;20024;-83
2024/01/15 05:49:30;;;;;;;4.90;1.05;;;2.50;99.90;;;;;;5055510;28;20028;-84
2024/01/15 05:51:55;;;;;;;3.25;1.05;;;2.50;99.90;;;;;;5076462;28;20009;-83
2024/01/15 05:54:21;;;;;;;3.40;1.27;;;2.60;99.90;;;;;;5066151;28;20010;-84
2024/01/15 05:56:47;;;;;;;5.25;1.15;;;2.70;99.90;;;;;;5067106;28;20587;-85
2024/01/15 05:59:13;;;;;;;7.78;1.60;;;2.70;99.90;;;;;;5031107;28;20128;-84
2024/01/15 06:01:46;;;;;;;2.85;1.15;;;2.70;99.90;;;;;;5051299;28;20108;-86
2024/01/15 06:04:12;;;;;;;3.17;0.95;;;2.70;99.90;;;;;;5053443;28;20439;-84
2024/01/15 06:06:38;;;;;;;5.55;1.90;;;2.70;99.90;;;;;;5039506;28;20025;-85
2024/01/15 06:09:06;;;;;;;6.00;1.70;;;2.70;99.90;;;;;;5021606;28;20127;-84
2024/01/15 06:11:32;;;;;;;1.95;1.10;;;2.70;99.90;;;;;;5036334;28;20060;-86
2024/01/15 06:14:00;;;;;;;4.75;1.10;;;2.70;99.90;;;;;;5035400;28;20028;-84
2024/01/15 06:16:26;;;;;;;3.33;1.00;;;2.60;99.90;;;;;;5022974;28;20053;-83
2024/01/15 06:18:52;;;;;;;3.70;1.23;;;2.70;99.90;;;;;;5045501;28;20066;-84
2024/01/15 06:21:17;;;;;;;4.40;1.60;;;2.70;99.90;;;;;;5044440;28;20033;-84
2024/01/15 06:23:43;;;;;;;6.20;1.00;;;2.70;99.90;;;;;;5044679;28;20025;-85
2024/01/15 06:26:12;;;;;;;3.08;1.15;;;2.70;99.90;;;;;;5044511;28;20074;-85
2024/01/15 06:28:38;;;;;;;3.97;1.42;;;2.70;99.90;;;;;;5050865;28;20226;-84
2024/01/15 06:31:04;;;;;;;4.10;1.58;;;2.70;99.90;;;;;;5052445;28;20048;-85
2024/01/15 06:33:31;;;;;;;3.80;1.38;;;2.70;99.90;;;;;;5034988;28;20040;-84
2024/01/15 06:35:56;;;;;;;2.80;1.30;;;2.70;99.90;;;;;;5053579;28;20453;-84
2024/01/15 06:38:23;;;;;;;4.60;1.77;;;2.70;99.90;;;;;;5029909;28;20033;-84
2024/01/15 06:40:48;;;;;;;2.95;1.52;;;2.80;99.90;;;;;;5033644;28;20037;-84
2024/01/15 06:43:15;;;;;;;3.03;1.80;;;2.80;99.90;;;;;;5065837;28;20040;-85
2024/01/15 06:45:41;;;;;;;2.70;1.58;;;2.80;99.90;;;;;;5032981;28;20120;-84
2024/01/15 06:48:07;;;;;;;2.72;2.13;;;2.80;99.90;;;;;;5049311;28;20033;-82
2024/01/15 06:50:33;;;;;;;4.78;2.72;;;2.80;99.90;;;;;;5056051;28;20024;-84
2024/01/15 06:53:01;;;;;;;5.53;2.75;;;2.90;99.90;;;;;;5039765;28;20074;-83
2024/01/15 06:55:28;;;;;;;5.13;2.90;;;2.80;99.90;;;;;;5074071;28;20542;-85
2024/01/15 06:57:53;;;;;;;3.42;2.78;;;2.80;99.90;;;;;;5056902;28;20021;-85
2024/01/15 07:00:19;;;;;;;4.10;2.70;;;2.90;99.90;;;;;;5018811;28;20029;-86
2024/01/15 07:02:45;;;;;;;4.00;2.65;;;2.90;99.90;;;;;;5037294;28;20021;-86
2024/01/15 07:05:11;;;;;;;2.92;2.60;;;2.90;99.90;;;;;;5029146;28;20052;-85
2024/01/15 07:07:37;;;;;;;6.60;2.80;;;2.90;99.90;;;;;;5066132;28;20060;-84
2024/01/15 07:10:04;;;;;;;4.82;3.20;;;2.90;99.90;;;;;;5080842;28;20024;-86
2024/01/15 07:12:30;;;;;;;4.50;3.63;;;2.80;99.90;;;;;;5080765;28;20031;-86
2024/01/15 07:14:58;;;;;;;4.40;3.88;;;2.80;99.90;;;;;;5062842;28;20013;-85
2024/01/15 07:17:25;;;;;;;5.60;3.85;;;2.80;99.90;;;;;;5052862;28;20056;-85
2024/01/15 07:19:59;;;;;;;5.78;3.97;;;2.80;99.90;;;;;;5037047;28;20083;-86
2024/01/15 07:22:25;;;;;;;4.15;3.53;;;2.80;99.90;;;;;;5053242;28;20481;-86
2024/01/15 07:24:51;;;;;;;9.27;4.28;;;2.80;99.90;;;;;;5053111;28;20025;-86
2024/01/15 07:27:16;;;;;;;4.70;4.00;;;2.80;99.90;;;;;;5053164;28;20059;-86
2024/01/15 07:29:42;;;;;;;4.82;4.20;;;2.80;99.90;;;;;;5045386;28;20064;-86
2024/01/15 07:32:09;;;;;;;5.47;4.18;;;2.80;99.90;;;;;;5040241;28;20034;-85
2024/01/15 07:34:34;;;;;;;5.30;4.03;;;2.80;99.90;;;;;;5016553;28;20026;-86
2024/01/15 07:37:00;;;;;;;4.88;4.10;;;2.80;99.90;;;;;;5055948;28;20017;-86
2024/01/15 07:39:26;;;;;;;3.90;3.50;;;2.80;99.90;;;;;;5059965;28;20460;-86
2024/01/15 07:41:54;;;;;;;4.40;4.00;;;2.80;99.90;;;;;;5048842;28;20040;-85
2024/01/15 07:44:20;;;;;;;4.93;3.60;;;2.70;99.90;;;;;;5055654;28;20061;-86
2024/01/15 07:46:47;;;;;;;4.05;3.60;;;2.70;99.90;;;;;;5060001;28;20460;-86
2024/01/15 07:49:13;;;;;;;4.82;4.05;;;2.70;99.90;;;;;;5059911;28;20017;-86
2024/01/15 07:51:43;;;;;;;4.75;3.75;;;2.70;99.90;;;;;;5060452;28;20025;-86
2024/01/15 07:54:11;;;;;;;3.58;2.92;;;2.70;99.90;;;;;;5043757;28;20059;-86
2024/01/15 07:57:00;;;;;;;4.65;3.47;;;2.70;99.90;;;;;;5050399;28;20037;-87
2024/01/15 07:59:26;;;;;;;3.50;3.17;;;2.70;99.90;;;;;;5039423;28;20471;-86
2024/01/15 08:01:54;;;;;;;3.90;2.92;;;2.70;99.90;;;;;;5049235;28;20021;-86
2024/01/15 08:04:21;;;;;;;3.42;2.70;;;2.80;99.90;;;;;;5040437;28;20025;-86
2024/01/15 08:06:47;;;;;;;3.22;2.92;;;2.80;99.90;;;;;;5051566;28;20044;-85
2024/01/15 08:09:13;;;;;;;3.03;2.50;;;2.80;99.90;;;;;;5041907;28;20040;-85
2024/01/15 08:11:41;;;;;;;3.05;2.70;;;2.80;99.90;;;;;;5053954;28;20032;-85
2024/01/15 08:14:07;;;;;;;2.55;2.20;;;2.80;99.90;;;;;;5023384;28;20064;-85
2024/01/15 08:16:33;;;;;;;2.75;2.40;;;2.80;99.90;;;;;;5038996;28;20049;-85
2024/01/15 08:18:59;;;;;;;3.25;2.42;;;2.80;99.90;;;;;;5054781;28;20032;-85
2024/01/15 08:21:24;;;;;;;2.78;2.15;;;2.80;99.90;;;;;;5043137;28;20384;-85
2024/01/15 08:23:50;;;;;;;2.63;1.92;;;2.80;99.90;;;;;;5065960;28;20017;-85
2024/01/15 08:26:16;;;;;;;1.40;1.30;;;2.70;99.90;;;;;;5083740;28;20028;-85
2024/01/15 08:28:41;;;;;;;2.03;1.23;;;2.70;99.90;;;;;;5082918;28;20104;-84
2024/01/15 08:31:07;;;;;;;1.40;1.00;;;2.70;99.90;;;;;;5065892;28;20067;-85
2024/01/15 08:33:33;;;;;;;2.92;1.60;;;2.80;99.90;;;;;;5035676;28;20443;-86
2024/01/15 08:35:58;;;;;;;1.60;1.40;;;2.80;99.90;;;;;;5050959;28;20021;-84
2024/01/15 08:38:25;;;;;;;4.95;1.90;;;2.80;99.90;;;;;;5056833;28;20029;-85
2024/01/15 08:40:53;;;;;;;1.92;1.50;;;2.80;99.90;;;;;;5042112;28;20152;-85
2024/01/15 08:43:19;;;;;;;1.60;1.50;;;2.70;99.90;;;;;;5058865;28;20547;-85
2024/01/15 08:45:45;;;;;;;3.80;1.85;;;2.70;99.90;;;;;;5038186;28;20029;-85
2024/01/15 08:48:10;;;;;;;1.67;1.42;;;2.70;99.90;;;;;;5012213;28;20048;-85
2024/01/15 08:50:36;;;;;;;4.55;2.05;;;2.70;99.90;;;;;;5037888;28;20507;-85
2024/01/15 08:53:07;;;;;;;2.67;1.52;;;2.70;99.90;;;;;;5055656;28;20419;-85
2024/01/15 08:55:35;;;;;;;2.78;1.52;;;2.70;99.90;;;;;;5055237;28;20370;-85
2024/01/15 08:58:01;;;;;;;2.53;1.40;;;2.70;99.90;;;;;;5055781;28;20032;-85
2024/01/15 09:00:26;;;;;;;2.38;1.52;;;2.70;99.90;;;;;;5055394;28;20028;-84
2024/01/15 09:02:52;;;;;;;3.00;1.50;;;2.70;99.90;;;;;;5039073;28;20041;-86
2024/01/15 09:05:18;;;;;;;4.30;1.70;;;2.70;99.90;;;;;;5054434;28;20020;-85
2024/01/15 09:07:45;;;;;;;2.33;1.55;;;2.70;99.90;;;;;;5053820;28;20389;-86
2024/01/15 09:10:14;;;;;;;1.95;1.30;;;2.80;99.90;;;;;;5055349;28;20029;-85
2024/01/15 09:12:39;;;;;;;3.47;1.75;;;2.80;99.90;;;;;;5055069;28;20060;-85
2024/01/15 09:15:15;;;;;;;3.38;1.83;;;2.90;99.90;;;;;;5037784;28;20033;-85
2024/01/15 09:17:41;;;;;;;6.25;2.10;;;2.90;99.90;;;;;;5054828;28;20090;-86
2024/01/15 09:20:07;;;;;;;2.83;2.13;;;2.90;99.90;;;;;;5055120;28;20120;-85
2024/01/15 09:22:33;;;;;;;3.92;2.00;;;2.90;99.90;;;;;;5038448;28;20021;-85
2024/01/15 09:24:59;;;;;;;3.15;2.10;;;3.00;99.90;;;;;;5038072;28;20051;-84
2024/01/15 09:27:26;;;;;;;4.78;2.33;;;3.00;99.90;;;;;;5056206;28;20369;-85
2024/01/15 09:29:52;;;;;;;3.83;2.00;;;3.00;99.90;;;;;;5055969;28;20474;-86
2024/01/15 09:32:18;;;;;;;2.70;1.85;;;3.00;99.90;;;;;;5038442;28;20033;-85
2024/01/15 09:34:46;;;;;;;4.50;1.95;;;3.00;99.90;;;;;;5055907;28;20369;-84
2024/01/15 09:37:12;;;;;;;2.88;1.52;;;3.00;99.90;;;;;;5055371;28;20033;-85
2024/01/15 09:39:37;;;;;;;3.45;1.70;;;3.00;99.90;;;;;;5055197;28;20033;-86
2024/01/15 09:42:04;;;;;;;3.55;1.55;;;3.00;99.90;;;;;;5063377;28;20035;-84
2024/01/15 09:44:33;;;;;;;5.90;1.13;;;3.00;99.90;;;;;;5079001;28;20009;-86
2024/01/15 09:47:03;;;;;;;2.92;0.95;;;3.00;99.90;;;;;;5079085;28;20008;-86
2024/01/15 09:49:29;;;;;;;3.30;1.10;;;3.10;99.90;;;;;;5077956;28;20040;-86
2024/01/15 09:51:56;;;;;;;5.20;1.02;;;3.10;99.90;;;;;;5058063;28;20021;-86
2024/01/15 09:54:23;;;;;;;1.65;0.80;;;3.10;99.90;;;;;;5056134;28;20040;-86
2024/01/15 09:56:50;;;;;;;4.72;0.98;;;3.10;99.90;;;;;;5038192;28;20044;-85
2024/01/15 09:59:24;;;;;;;5.45;0.90;;;3.10;99.90;;;;;;5054154;28;20033;-86
2024/01/15 10:01:50;;;;;;;3.47;0.80;;;3.10;99.90;;;;;;5055457;28;20452;-86
2024/01/15 10:04:16;;;;;;;2.65;0.85;;;3.00;99.90;;;;;;5055018;28;20086;-86
2024/01/15 10:06:45;;;;;;;2.05;0.70;;;3.00;99.90;;;;;;5054598;28;20112;-86
2024/01/15 10:09:14;;;;;;;2.15;0.65;;;2.90;99.90;;;;;;5055253;28;20444;-86
2024/01/15 10:11:44;;;;;;;1.10;0.50;;;2.80;99.90;;;;;;5055254;28;20032;-86
2024/01/15 10:14:13;;;;;;;1.67;0.60;;;2.80;99.90;;;;;;5055417;28;20017;-86
2024/01/15 10:16:42;;;;;;;3.95;0.80;;;2.80;99.90;;;;;;5056095;28;20037;-85
2024/01/15 10:19:09;;;;;;;4.13;1.20;;;2.90;99.90;;;;;;5058131;28;20032;-86
2024/01/15 10:21:38;;;;;;;3.13;0.80;;;2.80;99.90;;;;;;5058230;28;20028;-85
2024/01/15 10:24:04;;;;;;;4.68;0.80;;;2.80;99.90;;;;;;5041830;28;20037;-84
2024/01/15 10:26:33;;;;;;;3.85;0.98;;;2.80;99.90;;;;;;5040948;28;20560;-85
2024/01/15 10:29:00;;;;;;;4.20;0.95;;;2.80;99.90;;;;;;5024417;28;20052;-85
2024/01/15 10:31:26;;;;;;;3.17;0.93;;;2.80;99.90;;;;;;5057592;28;20483;-85
2024/01/15 10:33:52;;;;;;;2.72;1.23;;;2.90;99.90;;;;;;5056944;28;20111;-85
2024/01/15 10:36:18;;;;;;;2.90;1.20;;;3.00;99.90;;;;;;5056975;28;20048;-85
2024/01/15 10:38:45;;;;;;;4.65;1.30;;;3.00;99.90;;;;;;5040094;28;20054;-85
2024/01/15 10:41:11;;;;;;;4.18;1.40;;;3.00;99.90;;;;;;5068711;28;20453;-84
2024/01/15 10:43:37;;;;;;;4.47;2.30;;;3.10;99.90;;;;;;5059749;28;20032;-85
2024/01/15 10:46:03;;;;;;;3.75;2.17;;;3.20;99.90;;;;;;5040070;28;20050;-85
2024/01/15 10:48:35;;;;;;;3.58;2.25;;;3.30;99.90;;;;;;5035484;28;20028;-85
2024/01/15 10:51:10;;;;;;;3.38;2.25;;;3.40;99.90;;;;;;5051776;28;20047;-85
2024/01/15 10:53:39;;;;;;;3.30;2.65;;;3.50;99.90;;;;;;5037591;28;20025;-86
2024/01/15 10:56:09;;;;;;;4.68;3.28;;;3.60;99.90;;;;;;5042004;28;20040;-86
2024/01/15 10:58:37;;;;;;;4.53;3.45;;;3.60;99.90;;;;;;5075988;28;20031;-85
2024/01/15 11:01:04;;;;;;;3.58;3.28;;;3.70;99.90;;;;;;5070662;28;20067;-86
2024/01/15 11:03:37;;;;;;;4.93;3.63;;;3.70;99.90;;;;;;5078608;28;20075;-85
2024/01/15 11:06:15;;;;;;;4.82;3.30;;;3.80;99.90;;;;;;5067553;28;20025;-86
2024/01/15 11:08:42;;;;;;;3.28;2.97;;;3.70;99.90;;;;;;5048527;28;20066;-85
2024/01/15 11:11:09;;;;;;;3.70;2.90;;;3.60;99.90;;;;;;5027737;28;20075;-86
2024/01/15 11:13:38;;;;;;;3.97;2.78;;;3.50;99.90;;;;;;5036767;28;20013;-86
2024/01/15 11:16:16;;;;;;;5.40;2.42;;;3.50;99.90;;;;;;5052062;28;20064;-86
2024/01/15 11:18:47;;;;;;;4.32;2.15;;;3.40;99.90;;;;;;5051697;28;20049;-85
2024/01/15 11:21:23;;;;;;;3.50;2.00;;;3.40;99.90;;;;;;5041485;28;20037;-86
2024/01/15 11:23:59;;;;;;;2.97;2.25;;;3.30;99.90;;;;;;5031000;28;20029;-86
2024/01/15 11:26:44;;;;;;;5.43;2.60;;;3.30;99.90;;;;;;5074153;28;20482;-86
2024/01/15 11:29:30;;;;;;;4.68;2.60;;;3.20;99.90;;;;;;5039163;28;20052;-86
2024/01/15 11:31:55;;;;;;;6.43;2.78;;;3.20;99.90;;;;;;5036500;28;20029;-85
2024/01/15 11:34:43;;;;;;;5.35;3.22;;;3.30;99.90;;;;;;5056212;28;20442;-86
2024/01/15 11:37:08;;;;;;;5.35;3.55;;;3.40;99.90;;;;;;5055717;28;20035;-85
2024/01/15 11:39:42;;;;;;;7.57;2.95;;;3.40;99.90;;;;;;5039449;28;20024;-86
2024/01/15 11:42:11;;;;;;;2.97;1.85;;;3.40;99.90;;;;;;5062532;28;20020;-85
2024/01/15 11:44:39;;;;;;;5.60;2.13;;;3.40;99.90;;;;;;5055152;28;20116;-86
2024/01/15 11:47:07;;;;;;;5.10;1.70;;;3.40;99.90;;;;;;5053645;28;20057;-86
2024/01/15 11:50:11;;;;;;;3.08;1.35;;;3.30;99.90;;;;;;5053566;28;20064;-86
2024/01/15 11:52:38;;;;;;;3.10;1.17;;;3.40;99.90;;;;;;5035682;28;20373;-85
2024/01/15 11:55:14;;;;;;;6.57;1.42;;;3.40;99.90;;;;;;5035733;28;20029;-87
2024/01/15 11:57:40;;;;;;;4.60;1.58;;;3.30;99.90;;;;;;5036053;28;20061;-85
2024/01/15 12:00:10;;;;;;;5.80;1.10;;;3.30;99.90;;;;;;5055045;28;20060;-86
2024/01/15 12:02:36;;;;;;;3.17;0.93;;;3.30;99.90;;;;;;5055596;28;20021;-85
2024/01/15 12:05:02;;;;;;;5.80;1.17;;;3.30;99.90;;;;;;5073562;28;20048;-85
2024/01/15 12:07:28;;;;;;;4.45;1.40;;;3.30;99.90;;;;;;5055704;28;20081;-85
2024/01/15 12:09:54;;;;;;;5.18;1.45;;;3.30;99.90;;;;;;5049262;28;20423;-85
2024/01/15 12:13:06;;;;;;;4.82;1.63;;;3.30;99.90;;;;;;5003129;28;20025;-85
2024/01/15 12:15:31;;;;;;;;;;;3.30;99.90;;;;;;5030415;28;20033;-85
2024/01/15 12:17:59;;;;;;;6.10;1.45;;;3.30;99.90;;;;;;5056767;28;19923;-85
2024/01/15 12:20:32;;;;;;;6.00;1.27;;;3.40;99.90;;;;;;5076694;28;20015;-85
2024/01/15 12:22:57;;;;;;;5.07;1.40;;;3.40;99.90;;;;;;5063926;28;20020;-85
2024/01/15 12:25:26;;;;;;;3.08;1.17;;;3.40;99.90;;;;;;5032193;28;20033;-85
2024/01/15 12:27:53;;;;;;;4.47;1.05;;;3.60;99.90;;;;;;5043472;28;20396;-85
2024/01/15 12:30:19;;;;;;;4.75;0.90;;;3.60;99.90;;;;;;5040375;28;20139;-85
2024/01/15 12:32:46;;;;;;;7.97;1.25;;;3.60;99.90;;;;;;5039933;28;20021;-85
2024/01/15 12:35:13;;;;;;;5.25;1.20;;;3.70;99.90;;;;;;5058898;28;20472;-85
2024/01/15 12:37:43;;;;;;;6.32;1.20;;;3.80;99.90;;;;;;5029979;28;20536;-85
2024/01/15 12:40:14;;;;;;;8.00;1.60;;;3.80;99.90;;;;;;5055298;28;20099;-85
2024/01/15 12:42:41;;;;;;;3.17;1.00;;;3.90;99.90;;;;;;5040571;28;20078;-85
2024/01/15 12:45:08;;;;;;;4.72;1.15;;;4.00;99.90;;;;;;5043427;28;20409;-86
2024/01/15 12:47:34;;;;;;;4.43;1.63;;;4.00;99.90;;;;;;5053482;28;20058;-86
2024/01/15 12:49:59;;;;;;;5.68;1.25;;;4.00;99.90;;;;;;5013083;28;20041;-85
2024/01/15 12:52:29;;;;;;;3.95;1.63;;;4.00;99.90;;;;;;5024029;28;20033;-85
2024/01/15 12:54:56;;;;;;;2.33;1.30;;;3.90;99.90;;;;;;5049396;28;20019;-84
2024/01/15 12:57:21;;;;;;;3.53;1.35;;;3.80;99.90;;;;;;5025843;28;20029;-85
2024/01/15 12:59:47;;;;;;;4.68;1.15;;;3.90;99.90;;;;;;5048468;28;20095;-85